createdAt,value
2018-08-31T00:01:31.123Z,3.00
2018-08-31T00:05:47.022Z,3.10
2018-08-31T00:11:00.767Z,3.03
2018-08-31T00:15:04.324Z,3.03
2018-08-31T00:19:07.803Z,2.60
2018-08-31T00:23:11.311Z,2.80
2018-08-31T00:27:25.971Z,2.60
2018-08-31T00:33:43.985Z,2.77
2018-08-31T00:38:01.668Z,3.00
2018-08-31T00:43:14.478Z,2.80
2018-08-31T00:47:18.019Z,2.50
2018-08-31T00:51:21.734Z,2.65
2018-08-31T00:55:25.285Z,2.27
2018-08-31T00:59:28.778Z,2.83
2018-08-31T01:03:32.259Z,2.87
2018-08-31T01:07:35.724Z,2.77
2018-08-31T01:11:39.237Z,2.73
2018-08-31T01:15:42.667Z,3.30
2018-08-31T01:19:46.204Z,2.63
2018-08-31T01:23:49.680Z,3.10
2018-08-31T01:27:53.293Z,3.10
2018-08-31T01:31:56.872Z,2.70
2018-08-31T01:36:00.407Z,2.80
2018-08-31T01:40:03.929Z,2.90
2018-08-31T01:44:07.526Z,2.97
2018-08-31T01:48:11.033Z,2.57
2018-08-31T01:52:14.541Z,2.80
2018-08-31T01:56:18.044Z,2.80
2018-08-31T02:00:21.530Z,2.63
2018-08-31T02:04:25.065Z,3.00
2018-08-31T02:08:28.607Z,2.77
2018-08-31T02:12:32.125Z,2.53
2018-08-31T02:16:35.595Z,2.60
2018-08-31T02:20:43.350Z,3.20
2018-08-31T02:24:46.832Z,2.93
2018-08-31T02:28:50.306Z,3.00
2018-08-31T02:32:53.806Z,3.00
2018-08-31T02:36:57.319Z,3.30
2018-08-31T02:41:00.820Z,3.17
2018-08-31T02:45:04.643Z,3.20
2018-08-31T02:49:08.182Z,3.13
2018-08-31T02:53:11.714Z,3.10
2018-08-31T02:57:15.190Z,2.80
2018-08-31T03:01:18.678Z,2.70
2018-08-31T03:05:22.181Z,3.40
2018-08-31T03:09:25.644Z,3.20
2018-08-31T03:13:29.130Z,2.97
2018-08-31T03:17:32.624Z,3.00
2018-08-31T03:21:36.117Z,2.87
2018-08-31T03:25:39.637Z,2.90
2018-08-31T03:29:43.139Z,3.00
2018-08-31T03:33:46.650Z,3.27
2018-08-31T03:37:50.162Z,3.20
2018-08-31T03:41:53.676Z,3.30
2018-08-31T03:45:57.175Z,3.20
2018-08-31T03:50:00.645Z,2.93
2018-08-31T03:54:04.166Z,3.17
2018-08-31T03:58:07.659Z,2.80
2018-08-31T04:02:11.162Z,3.10
2018-08-31T04:06:14.646Z,3.20
2018-08-31T04:10:18.132Z,3.13
2018-08-31T04:14:21.623Z,3.23
2018-08-31T04:18:25.169Z,3.20
2018-08-31T04:22:28.780Z,3.30
2018-08-31T04:26:32.236Z,3.70
2018-08-31T04:30:35.808Z,3.33
2018-08-31T04:34:39.315Z,3.37
2018-08-31T04:38:42.816Z,3.13
2018-08-31T04:42:46.307Z,3.30
2018-08-31T04:46:49.816Z,3.00
2018-08-31T04:50:53.340Z,3.03
2018-08-31T04:54:56.843Z,3.10
2018-08-31T04:59:00.337Z,3.50
2018-08-31T05:03:03.902Z,3.13
2018-08-31T05:07:07.453Z,3.23
2018-08-31T05:11:10.955Z,3.30
2018-08-31T05:15:14.527Z,3.50
2018-08-31T05:19:18.010Z,3.73
2018-08-31T05:23:21.509Z,3.30
2018-08-31T05:27:24.951Z,3.30
2018-08-31T05:31:28.572Z,3.20
2018-08-31T05:35:32.066Z,3.17
2018-08-31T05:39:35.535Z,3.10
2018-08-31T05:43:39.042Z,3.53
2018-08-31T05:47:42.482Z,3.40
2018-08-31T05:51:45.972Z,3.40
2018-08-31T05:55:49.463Z,3.50
2018-08-31T05:59:52.960Z,3.70
2018-08-31T06:03:56.437Z,3.37
2018-08-31T06:07:59.909Z,3.50
2018-08-31T06:12:03.453Z,3.70
2018-08-31T06:16:06.985Z,3.43
2018-08-31T06:20:10.435Z,4.10
2018-08-31T06:24:13.916Z,3.33
2018-08-31T06:28:17.402Z,3.33
2018-08-31T06:32:20.929Z,3.13
2018-08-31T06:36:24.467Z,3.23
2018-08-31T06:40:27.998Z,4.00
2018-08-31T06:44:31.603Z,3.60
2018-08-31T06:48:35.112Z,3.30
2018-08-31T06:52:38.637Z,3.60
2018-08-31T06:56:42.152Z,3.50
2018-08-31T07:00:45.699Z,3.47
2018-08-31T07:04:49.207Z,3.80
2018-08-31T07:08:52.667Z,4.10
2018-08-31T07:12:56.186Z,4.37
2018-08-31T07:16:59.650Z,4.23
2018-08-31T07:21:03.429Z,4.23
2018-08-31T07:25:06.895Z,4.67
2018-08-31T07:29:10.367Z,4.85
2018-08-31T07:33:13.879Z,4.67
2018-08-31T07:37:17.417Z,4.58
2018-08-31T07:41:21.025Z,4.40
2018-08-31T07:45:24.544Z,5.20
2018-08-31T07:49:28.419Z,4.67
2018-08-31T07:53:32.134Z,4.92
2018-08-31T07:57:35.642Z,5.42
2018-08-31T08:01:39.149Z,5.70
2018-08-31T08:05:43.007Z,5.28
2018-08-31T08:09:46.425Z,5.72
2018-08-31T08:13:49.944Z,4.72
2018-08-31T08:17:53.448Z,4.92
2018-08-31T08:21:56.952Z,5.03
2018-08-31T08:26:00.475Z,5.12
2018-08-31T08:30:03.950Z,5.08
2018-08-31T08:34:07.426Z,5.45
2018-08-31T08:38:19.771Z,5.55
2018-08-31T08:42:23.342Z,5.25
2018-08-31T08:46:26.807Z,5.12
2018-08-31T08:50:30.298Z,4.85
2018-08-31T08:54:33.849Z,4.60
2018-08-31T08:58:37.357Z,4.20
2018-08-31T09:02:40.797Z,4.35
2018-08-31T09:06:44.335Z,3.92
2018-08-31T09:10:47.843Z,4.03
2018-08-31T09:14:51.356Z,4.40
2018-08-31T09:18:54.933Z,3.60
2018-08-31T09:22:58.419Z,4.22
2018-08-31T09:27:01.983Z,4.25
2018-08-31T09:31:09.662Z,3.37
2018-08-31T09:35:13.174Z,3.67
2018-08-31T09:39:16.762Z,3.77
2018-08-31T09:43:20.314Z,4.05
2018-08-31T09:47:23.823Z,3.85
2018-08-31T09:51:27.377Z,3.60
2018-08-31T09:55:30.864Z,3.90
2018-08-31T09:59:34.357Z,4.35
2018-08-31T10:03:37.913Z,4.10
2018-08-31T10:07:41.431Z,3.80
2018-08-31T10:11:44.910Z,3.85
2018-08-31T10:15:48.499Z,3.83
2018-08-31T10:19:52.000Z,4.30
2018-08-31T10:23:55.478Z,3.42
2018-08-31T10:27:58.986Z,3.77
2018-08-31T10:32:04.073Z,3.50
2018-08-31T10:36:07.558Z,4.15
2018-08-31T10:40:11.050Z,3.62
2018-08-31T10:44:14.523Z,3.80
2018-08-31T10:48:18.025Z,4.37
2018-08-31T10:52:21.577Z,3.87
2018-08-31T10:56:25.116Z,4.10
2018-08-31T11:00:28.614Z,3.42
2018-08-31T11:04:32.160Z,4.53
2018-08-31T11:08:35.649Z,3.77
2018-08-31T11:12:39.317Z,4.15
2018-08-31T11:16:42.741Z,3.75
2018-08-31T11:20:46.249Z,4.08
2018-08-31T11:24:49.792Z,4.10
2018-08-31T11:28:53.287Z,3.52
2018-08-31T11:32:56.978Z,3.65
2018-08-31T11:37:00.584Z,3.40
2018-08-31T11:41:04.584Z,3.42
2018-08-31T11:45:08.153Z,3.83
2018-08-31T11:49:11.689Z,3.67
2018-08-31T11:53:15.239Z,3.83
2018-08-31T11:57:18.751Z,3.50
2018-08-31T12:01:22.309Z,3.90
2018-08-31T12:05:25.763Z,3.25
2018-08-31T12:09:29.273Z,3.70
2018-08-31T12:13:32.985Z,3.52
2018-08-31T12:17:36.504Z,3.52
2018-08-31T12:21:40.012Z,3.45
2018-08-31T12:25:43.542Z,3.08
2018-08-31T12:29:47.009Z,3.47
2018-08-31T12:33:50.497Z,3.00
2018-08-31T12:37:54.032Z,3.17
2018-08-31T12:41:57.505Z,3.40
2018-08-31T12:46:01.265Z,3.45
2018-08-31T12:50:04.731Z,3.50
2018-08-31T12:54:08.245Z,3.33
2018-08-31T12:58:11.805Z,2.90
2018-08-31T13:02:15.314Z,3.62
2018-08-31T13:06:18.853Z,3.40
2018-08-31T13:10:22.375Z,3.67
2018-08-31T13:14:25.970Z,3.10
2018-08-31T13:18:29.497Z,3.12
2018-08-31T13:22:33.020Z,3.22
2018-08-31T13:26:36.509Z,3.22
2018-08-31T13:30:40.248Z,3.52
2018-08-31T13:34:43.776Z,3.50
2018-08-31T13:38:47.265Z,3.50
2018-08-31T13:42:50.754Z,2.85
2018-08-31T13:46:54.342Z,3.72
2018-08-31T13:50:57.818Z,3.12
2018-08-31T13:55:01.324Z,3.75
2018-08-31T13:59:05.119Z,3.08
2018-08-31T14:03:08.643Z,3.30
2018-08-31T14:07:12.215Z,3.20
2018-08-31T14:11:15.827Z,3.08
2018-08-31T14:15:19.419Z,3.70
2018-08-31T14:19:22.919Z,3.22
2018-08-31T14:23:26.476Z,3.30
2018-08-31T14:27:29.971Z,3.87
2018-08-31T14:31:33.464Z,3.65
2018-08-31T14:35:37.055Z,3.52
2018-08-31T14:39:40.691Z,3.05
2018-08-31T14:43:44.377Z,3.35
2018-08-31T14:47:47.891Z,3.27
2018-08-31T14:51:51.403Z,3.35
2018-08-31T14:55:54.929Z,2.58
2018-08-31T14:59:58.419Z,3.17
2018-08-31T15:04:02.553Z,3.17
2018-08-31T15:08:06.018Z,3.33
2018-08-31T15:12:09.522Z,3.52
2018-08-31T15:16:13.045Z,3.67
2018-08-31T15:20:16.546Z,3.42
2018-08-31T15:24:20.053Z,3.12
2018-08-31T15:28:23.527Z,3.22
2018-08-31T15:32:27.009Z,3.35
2018-08-31T15:36:30.514Z,3.17
2018-08-31T15:40:34.035Z,3.40
2018-08-31T15:44:37.599Z,3.52
2018-08-31T15:48:41.117Z,3.55
2018-08-31T15:52:44.579Z,3.60
2018-08-31T15:57:01.778Z,2.90
2018-08-31T16:01:05.379Z,3.55
2018-08-31T16:05:09.199Z,3.27
2018-08-31T16:09:12.714Z,3.70
2018-08-31T16:13:16.214Z,3.50
2018-08-31T16:17:19.698Z,3.50
2018-08-31T16:21:23.142Z,3.40
2018-08-31T16:25:26.631Z,2.83
2018-08-31T16:29:30.130Z,3.52
2018-08-31T16:33:33.733Z,3.50
2018-08-31T16:37:37.223Z,3.27
2018-08-31T16:41:40.731Z,2.98
2018-08-31T16:45:44.263Z,3.22
2018-08-31T16:49:47.726Z,2.98
2018-08-31T16:53:51.202Z,3.05
2018-08-31T16:57:54.714Z,2.90
2018-08-31T17:01:58.189Z,3.20
2018-08-31T17:06:01.728Z,3.05
2018-08-31T17:10:05.447Z,3.00
2018-08-31T17:14:08.957Z,3.10
2018-08-31T17:18:12.467Z,3.33
2018-08-31T17:22:16.061Z,3.50
2018-08-31T17:26:24.913Z,3.30
2018-08-31T17:30:28.389Z,3.00
2018-08-31T17:34:37.178Z,3.10
2018-08-31T17:38:40.658Z,3.72
2018-08-31T17:42:44.137Z,3.27
2018-08-31T17:46:47.611Z,2.87
2018-08-31T17:50:51.122Z,3.22
2018-08-31T17:54:54.562Z,3.50
2018-08-31T17:58:58.065Z,3.50
2018-08-31T18:03:01.573Z,3.00
2018-08-31T18:07:05.064Z,3.77
2018-08-31T18:11:08.806Z,3.90
2018-08-31T18:15:12.282Z,4.28
2018-08-31T18:19:15.756Z,3.62
2018-08-31T18:23:19.266Z,3.50
2018-08-31T18:27:22.757Z,3.95
2018-08-31T18:31:26.246Z,3.72
2018-08-31T18:35:29.805Z,4.40
2018-08-31T18:39:33.244Z,3.98
2018-08-31T18:43:36.844Z,3.72
2018-08-31T18:47:40.384Z,3.95
2018-08-31T18:51:43.938Z,3.70
2018-08-31T18:55:47.605Z,4.25
2018-08-31T18:59:51.114Z,3.83
2018-08-31T19:03:54.566Z,3.75
2018-08-31T19:07:58.936Z,3.70
2018-08-31T19:12:02.418Z,3.80
2018-08-31T19:16:06.028Z,4.62
2018-08-31T19:20:09.513Z,3.77
2018-08-31T19:24:13.039Z,3.60
2018-08-31T19:28:16.508Z,3.80
2018-08-31T19:32:20.016Z,4.42
2018-08-31T19:36:23.526Z,4.50
2018-08-31T19:40:27.016Z,4.35
2018-08-31T19:44:30.538Z,4.22
2018-08-31T19:48:33.983Z,4.10
2018-08-31T19:52:37.454Z,3.72
2018-08-31T19:56:41.041Z,4.20
2018-08-31T20:00:44.476Z,4.00
2018-08-31T20:04:48.035Z,4.47
2018-08-31T20:08:51.592Z,4.25
2018-08-31T20:12:55.083Z,3.92
2018-08-31T20:16:58.527Z,4.12
2018-08-31T20:21:02.013Z,4.55
2018-08-31T20:25:05.785Z,4.72
2018-08-31T20:29:09.254Z,4.12
2018-08-31T20:33:12.745Z,4.50
2018-08-31T20:37:16.245Z,4.72
2018-08-31T20:41:19.700Z,4.30
2018-08-31T20:45:23.385Z,4.95
2018-08-31T20:49:26.827Z,4.40
2018-08-31T20:53:30.327Z,4.83
2018-08-31T20:57:33.822Z,4.42
2018-08-31T21:01:37.492Z,4.60
2018-08-31T21:05:41.256Z,4.45
2018-08-31T21:09:44.738Z,4.15
2018-08-31T21:13:48.239Z,4.53
2018-08-31T21:17:51.748Z,4.78
2018-08-31T21:21:55.261Z,4.03
2018-08-31T21:25:58.844Z,4.70
2018-08-31T21:30:02.495Z,4.67
2018-08-31T21:34:06.027Z,4.58
2018-08-31T21:38:09.509Z,4.53
2018-08-31T21:42:13.246Z,4.60
2018-08-31T21:46:16.650Z,4.55
2018-08-31T21:50:20.135Z,4.35
2018-08-31T21:54:23.703Z,4.40
2018-08-31T21:58:27.163Z,5.03
2018-08-31T22:02:30.615Z,4.22
2018-08-31T22:06:34.097Z,4.58
2018-08-31T22:10:37.606Z,4.50
2018-08-31T22:14:41.090Z,4.30
2018-08-31T22:18:44.576Z,4.42
2018-08-31T22:22:48.058Z,4.20
2018-08-31T22:26:51.539Z,4.45
2018-08-31T22:30:55.059Z,4.25
2018-08-31T22:34:58.584Z,4.70
2018-08-31T22:39:02.269Z,4.83
2018-08-31T22:43:06.132Z,4.37
2018-08-31T22:47:09.577Z,4.03
2018-08-31T22:51:13.762Z,4.47
2018-08-31T22:55:17.220Z,4.30
2018-08-31T22:59:20.704Z,4.42
2018-08-31T23:03:24.211Z,3.92
2018-08-31T23:07:33.010Z,4.30
2018-08-31T23:11:36.511Z,3.83
2018-08-31T23:15:39.999Z,4.75
2018-08-31T23:19:43.573Z,4.60
2018-08-31T23:23:47.907Z,3.75
2018-08-31T23:27:51.494Z,4.90
2018-08-31T23:31:54.979Z,5.00
2018-08-31T23:35:58.450Z,4.90
2018-08-31T23:40:01.965Z,4.30
2018-08-31T23:44:05.547Z,5.22
2018-08-31T23:48:08.996Z,4.50
2018-08-31T23:52:12.484Z,4.50
2018-08-31T23:56:15.959Z,4.35
